createdAt,value
2022-11-29T00:00:48.273Z,48.90
2022-11-29T00:03:15.410Z,49.50
2022-11-29T00:05:41.959Z,54.20
2022-11-29T00:08:08.719Z,48.77
2022-11-29T00:10:38.285Z,50.43
2022-11-29T00:13:04.915Z,47.30
2022-11-29T00:15:39.179Z,49.10
2022-11-29T00:18:06.526Z,46.23
2022-11-29T00:20:35.165Z,50.60
2022-11-29T00:23:01.836Z,49.47
2022-11-29T00:25:28.372Z,44.23
2022-11-29T00:27:54.853Z,45.37
2022-11-29T00:30:21.585Z,47.47
2022-11-29T00:32:48.163Z,47.30
2022-11-29T00:35:14.636Z,47.40
2022-11-29T00:37:41.230Z,48.17
2022-11-29T00:40:08.352Z,44.53
2022-11-29T00:42:35.294Z,46.77
2022-11-29T00:45:01.778Z,43.03
2022-11-29T00:47:28.306Z,40.07
2022-11-29T00:49:54.770Z,47.93
2022-11-29T00:52:21.329Z,47.30
2022-11-29T00:54:47.863Z,46.80
2022-11-29T00:57:14.350Z,49.57
2022-11-29T00:59:40.799Z,49.53
2022-11-29T01:02:07.242Z,43.30
2022-11-29T01:04:33.949Z,44.33
2022-11-29T01:07:00.564Z,46.00
2022-11-29T01:09:26.987Z,41.17
2022-11-29T01:11:53.426Z,43.17
2022-11-29T01:14:19.844Z,47.00
2022-11-29T01:16:46.368Z,46.97
2022-11-29T01:19:12.904Z,46.63
2022-11-29T01:21:39.317Z,48.73
2022-11-29T01:24:05.949Z,49.60
2022-11-29T01:26:32.466Z,42.60
2022-11-29T01:28:59.575Z,49.10
2022-11-29T01:31:31.740Z,49.57
2022-11-29T01:34:00.434Z,46.93
2022-11-29T01:36:27.312Z,49.97
2022-11-29T01:38:54.062Z,46.87
2022-11-29T01:41:25.432Z,49.10
2022-11-29T01:44:04.073Z,52.20
2022-11-29T01:46:38.515Z,46.00
2022-11-29T01:49:17.690Z,49.97
2022-11-29T01:51:56.269Z,47.00
2022-11-29T01:54:23.069Z,44.57
2022-11-29T01:56:50.584Z,52.57
2022-11-29T01:59:19.848Z,48.30
2022-11-29T02:01:46.355Z,47.03
2022-11-29T02:04:13.900Z,46.33
2022-11-29T02:06:41.460Z,49.00
2022-11-29T02:09:19.582Z,47.37
2022-11-29T02:12:00.820Z,53.37
2022-11-29T02:14:40.302Z,46.07
2022-11-29T02:17:44.280Z,48.83
2022-11-29T02:20:42.827Z,48.07
2022-11-29T02:23:23.750Z,49.10
2022-11-29T02:26:03.449Z,45.43
2022-11-29T02:28:38.777Z,48.07
2022-11-29T02:31:20.919Z,48.50
2022-11-29T02:34:16.895Z,47.43
2022-11-29T02:37:11.666Z,55.30
2022-11-29T02:39:52.814Z,54.07
2022-11-29T02:42:56.114Z,52.27
2022-11-29T02:45:49.208Z,51.47
2022-11-29T02:48:50.070Z,48.07
2022-11-29T02:51:28.168Z,62.40
2022-11-29T02:54:11.495Z,52.00
2022-11-29T02:56:44.229Z,49.97
2022-11-29T02:59:29.446Z,55.53
2022-11-29T03:02:03.267Z,47.60
2022-11-29T03:04:35.522Z,49.77
2022-11-29T03:07:27.441Z,49.00
2022-11-29T03:10:06.051Z,51.93
2022-11-29T03:12:39.643Z,53.80
2022-11-29T03:15:24.950Z,46.67
2022-11-29T03:18:01.761Z,49.10
2022-11-29T03:20:55.618Z,50.77
2022-11-29T03:23:38.230Z,48.33
2022-11-29T03:26:15.742Z,52.57
2022-11-29T03:28:52.045Z,49.53
2022-11-29T03:31:28.837Z,52.73
2022-11-29T03:34:26.829Z,51.07
2022-11-29T03:37:02.462Z,47.67
2022-11-29T03:39:42.867Z,53.10
2022-11-29T03:42:17.879Z,50.90
2022-11-29T03:44:53.748Z,52.20
2022-11-29T03:47:26.268Z,55.07
2022-11-29T03:49:58.065Z,50.07
2022-11-29T03:52:53.798Z,47.53
2022-11-29T03:55:49.198Z,46.57
2022-11-29T03:58:30.470Z,56.80
2022-11-29T04:01:24.271Z,45.27
2022-11-29T04:04:30.755Z,52.20
2022-11-29T04:07:21.572Z,46.67
2022-11-29T04:10:03.753Z,44.13
2022-11-29T04:12:45.519Z,51.13
2022-11-29T04:15:34.030Z,45.73
2022-11-29T04:18:06.670Z,46.50
2022-11-29T04:21:06.855Z,45.20
2022-11-29T04:24:17.668Z,47.70
2022-11-29T04:26:52.766Z,48.07
2022-11-29T04:29:30.203Z,50.57
2022-11-29T04:32:19.658Z,53.60
2022-11-29T04:35:14.020Z,49.73
2022-11-29T04:38:02.301Z,46.97
2022-11-29T04:41:10.610Z,48.33
2022-11-29T04:43:51.862Z,49.30
2022-11-29T04:46:49.191Z,44.80
2022-11-29T04:49:28.900Z,47.97
2022-11-29T04:52:15.023Z,48.30
2022-11-29T04:55:02.965Z,46.77
2022-11-29T04:57:46.462Z,47.90
2022-11-29T05:00:16.156Z,47.10
2022-11-29T05:02:58.196Z,52.43
2022-11-29T05:05:43.207Z,42.70
2022-11-29T05:08:40.884Z,49.83
2022-11-29T05:11:16.069Z,46.07
2022-11-29T05:13:58.940Z,51.53
2022-11-29T05:16:40.548Z,48.40
2022-11-29T05:19:26.159Z,49.80
2022-11-29T05:22:20.629Z,56.43
2022-11-29T05:24:55.613Z,55.57
2022-11-29T05:27:22.009Z,54.13
2022-11-29T05:29:54.407Z,54.53
2022-11-29T05:32:45.711Z,60.70
2022-11-29T05:35:33.932Z,58.63
2022-11-29T05:38:05.611Z,58.53
2022-11-29T05:40:53.321Z,56.73
2022-11-29T05:43:36.119Z,61.80
2022-11-29T05:46:22.804Z,67.13
2022-11-29T05:49:17.461Z,62.60
2022-11-29T05:51:56.190Z,58.43
2022-11-29T05:54:34.350Z,64.40
2022-11-29T05:57:45.633Z,65.00
2022-11-29T06:00:14.707Z,60.80
2022-11-29T06:02:55.027Z,65.97
2022-11-29T06:05:39.637Z,60.57
2022-11-29T06:08:30.429Z,62.97
2022-11-29T06:11:05.831Z,62.20
2022-11-29T06:14:09.859Z,59.20
2022-11-29T06:17:01.922Z,61.17
2022-11-29T06:19:35.105Z,63.33
2022-11-29T06:22:20.965Z,68.70
2022-11-29T06:25:32.570Z,59.03
2022-11-29T06:28:07.807Z,71.37
2022-11-29T06:31:05.429Z,60.30
2022-11-29T06:33:48.487Z,58.77
2022-11-29T06:36:20.051Z,60.77
2022-11-29T06:38:47.187Z,64.77
2022-11-29T06:41:18.432Z,67.93
2022-11-29T06:43:45.756Z,56.67
2022-11-29T06:46:25.589Z,52.50
2022-11-29T06:49:02.229Z,63.67
2022-11-29T06:51:34.377Z,57.63
2022-11-29T06:54:07.989Z,58.63
2022-11-29T06:56:44.587Z,66.77
2022-11-29T06:59:30.896Z,59.50
2022-11-29T07:02:42.735Z,64.07
2022-11-29T07:05:18.032Z,62.13
2022-11-29T07:07:47.225Z,64.47
2022-11-29T07:10:18.643Z,58.43
2022-11-29T07:12:46.490Z,63.03
2022-11-29T07:15:18.758Z,70.77
2022-11-29T07:17:54.825Z,70.47
2022-11-29T07:20:31.407Z,72.57
2022-11-29T07:23:19.668Z,64.17
2022-11-29T07:26:05.065Z,73.10
2022-11-29T07:28:46.605Z,66.40
2022-11-29T07:31:42.830Z,73.17
2022-11-29T07:34:41.868Z,71.87
2022-11-29T07:37:32.668Z,75.03
2022-11-29T07:40:18.002Z,77.87
2022-11-29T07:42:59.764Z,75.73
2022-11-29T07:45:31.942Z,72.20
2022-11-29T07:47:59.125Z,78.07
2022-11-29T07:50:27.217Z,80.80
2022-11-29T07:52:54.254Z,75.23
2022-11-29T07:55:22.477Z,73.33
2022-11-29T07:57:49.975Z,70.17
2022-11-29T08:00:18.365Z,77.90
2022-11-29T08:02:45.230Z,60.80
2022-11-29T08:05:11.873Z,63.20
2022-11-29T08:07:41.090Z,62.73
2022-11-29T08:10:13.536Z,58.03
2022-11-29T08:12:45.557Z,63.10
2022-11-29T08:15:12.869Z,58.43
2022-11-29T08:17:39.684Z,57.07
2022-11-29T08:20:07.271Z,55.87
2022-11-29T08:22:34.319Z,52.20
2022-11-29T08:25:01.604Z,54.57
2022-11-29T08:27:28.363Z,54.27
2022-11-29T08:29:55.174Z,52.27
2022-11-29T08:32:21.956Z,52.27
2022-11-29T08:34:48.529Z,50.27
2022-11-29T08:37:15.335Z,56.93
2022-11-29T08:39:42.005Z,59.33
2022-11-29T08:42:08.603Z,60.67
2022-11-29T08:44:36.385Z,52.00
2022-11-29T08:47:21.704Z,60.40
2022-11-29T08:50:03.412Z,58.13
2022-11-29T08:52:50.092Z,58.70
2022-11-29T08:55:17.883Z,64.00
2022-11-29T08:57:44.490Z,56.20
2022-11-29T09:00:12.353Z,63.57
2022-11-29T09:02:39.331Z,54.93
2022-11-29T09:05:06.820Z,58.27
2022-11-29T09:07:34.585Z,56.47
2022-11-29T09:10:05.481Z,57.13
2022-11-29T09:12:32.761Z,56.73
2022-11-29T09:14:59.465Z,57.90
2022-11-29T09:17:26.069Z,50.30
2022-11-29T09:19:52.711Z,49.83
2022-11-29T09:22:19.348Z,49.17
2022-11-29T09:24:46.954Z,49.23
2022-11-29T09:27:13.786Z,49.80
2022-11-29T09:29:40.321Z,54.30
2022-11-29T09:32:07.168Z,45.80
2022-11-29T09:34:35.900Z,49.90
2022-11-29T09:37:02.584Z,48.53
2022-11-29T09:39:29.420Z,49.73
2022-11-29T09:42:27.440Z,51.57
2022-11-29T09:45:07.774Z,55.40
2022-11-29T09:48:02.569Z,48.37
2022-11-29T09:50:37.272Z,49.03
2022-11-29T09:53:14.211Z,54.63
2022-11-29T09:56:15.078Z,51.17
2022-11-29T09:58:48.189Z,49.03
2022-11-29T10:01:21.261Z,50.13
2022-11-29T10:03:52.146Z,51.60
2022-11-29T10:06:24.411Z,43.33
2022-11-29T10:09:03.129Z,47.37
2022-11-29T10:11:47.897Z,46.80
2022-11-29T10:14:18.360Z,46.57
2022-11-29T10:16:53.189Z,43.53
2022-11-29T10:19:21.538Z,40.83
2022-11-29T10:22:03.599Z,45.37
2022-11-29T10:24:31.998Z,42.70
2022-11-29T10:26:58.812Z,45.90
2022-11-29T10:29:25.776Z,40.03
2022-11-29T10:31:56.755Z,40.07
2022-11-29T10:34:25.947Z,41.40
2022-11-29T10:37:03.421Z,40.70
2022-11-29T10:39:49.295Z,44.97
2022-11-29T10:42:39.569Z,43.60
2022-11-29T10:45:17.148Z,44.43
2022-11-29T10:47:46.693Z,39.77
2022-11-29T10:50:17.633Z,42.97
2022-11-29T10:52:44.122Z,44.97
2022-11-29T10:55:14.045Z,41.13
2022-11-29T10:58:15.687Z,39.60
2022-11-29T11:01:09.480Z,41.67
2022-11-29T11:03:42.870Z,38.83
2022-11-29T11:06:24.476Z,39.83
2022-11-29T11:08:55.288Z,40.70
2022-11-29T11:11:30.857Z,36.73
2022-11-29T11:14:23.128Z,39.27
2022-11-29T11:16:50.274Z,40.50
2022-11-29T11:19:30.843Z,37.97
2022-11-29T11:21:59.304Z,38.13
2022-11-29T11:24:35.544Z,34.63
2022-11-29T11:27:04.201Z,35.77
2022-11-29T11:29:44.374Z,34.23
2022-11-29T11:32:19.508Z,36.10
2022-11-29T11:34:53.984Z,39.83
2022-11-29T11:37:34.314Z,38.67
2022-11-29T11:40:19.068Z,39.30
2022-11-29T11:42:45.887Z,39.27
2022-11-29T11:45:12.556Z,36.57
2022-11-29T11:47:49.275Z,41.43
2022-11-29T11:50:24.150Z,36.13
2022-11-29T11:52:54.062Z,40.70
2022-11-29T11:55:36.836Z,42.27
2022-11-29T11:58:10.335Z,39.47
2022-11-29T12:04:14.995Z,45.17
2022-11-29T12:07:02.919Z,41.07
2022-11-29T12:09:59.314Z,42.90
2022-11-29T12:12:37.275Z,41.27
2022-11-29T12:15:07.780Z,46.90
2022-11-29T12:17:52.809Z,40.07
2022-11-29T12:20:40.031Z,40.77
2022-11-29T12:23:22.073Z,40.63
2022-11-29T12:25:52.140Z,39.47
2022-11-29T12:28:21.097Z,44.70
2022-11-29T12:30:56.564Z,34.33
2022-11-29T12:33:49.855Z,40.53
2022-11-29T12:36:24.780Z,37.93
2022-11-29T12:39:00.155Z,40.57
2022-11-29T12:42:00.432Z,38.63
2022-11-29T12:44:37.713Z,79.37
2022-11-29T12:47:40.192Z,49.87
2022-11-29T12:50:19.033Z,38.70
2022-11-29T12:53:04.158Z,40.23
2022-11-29T12:55:50.993Z,38.53
2022-11-29T12:58:27.349Z,37.53
2022-11-29T13:01:12.886Z,38.33
2022-11-29T13:03:39.928Z,40.07
2022-11-29T13:06:30.381Z,46.00
2022-11-29T13:09:12.014Z,39.20
2022-11-29T13:11:43.196Z,36.80
2022-11-29T13:14:42.215Z,36.50
2022-11-29T13:17:36.865Z,42.37
2022-11-29T13:20:39.364Z,30.80
2022-11-29T13:23:17.686Z,35.90
2022-11-29T13:25:46.369Z,38.23
2022-11-29T13:28:29.989Z,33.10
2022-11-29T13:31:01.079Z,34.87
2022-11-29T13:33:55.717Z,34.17
2022-11-29T13:36:49.375Z,42.63
2022-11-29T13:39:46.515Z,40.07
2022-11-29T13:42:19.627Z,39.60
2022-11-29T13:45:05.433Z,40.57
2022-11-29T13:47:32.066Z,46.03
2022-11-29T13:50:37.232Z,36.03
2022-11-29T13:53:12.611Z,42.00
2022-11-29T13:55:59.836Z,38.80
2022-11-29T13:58:29.276Z,35.83
2022-11-29T14:01:00.932Z,39.87
2022-11-29T14:03:39.176Z,37.77
2022-11-29T14:06:14.238Z,41.90
2022-11-29T14:11:42.950Z,47.17
2022-11-29T14:14:30.122Z,51.90
2022-11-29T14:17:02.409Z,49.07
2022-11-29T14:19:33.986Z,51.40
2022-11-29T14:22:06.613Z,48.50
2022-11-29T14:24:34.223Z,46.53
2022-11-29T14:27:06.452Z,39.60
2022-11-29T14:29:52.652Z,46.00
2022-11-29T14:32:22.750Z,47.10
2022-11-29T14:34:59.400Z,46.90
2022-11-29T14:38:02.072Z,48.50
2022-11-29T14:40:28.454Z,45.23
2022-11-29T14:42:54.943Z,38.10
2022-11-29T14:45:30.022Z,44.50
2022-11-29T14:47:57.074Z,40.27
2022-11-29T14:50:36.431Z,44.87
2022-11-29T14:53:04.952Z,36.53
2022-11-29T14:55:35.482Z,42.40
2022-11-29T14:58:06.249Z,37.57
2022-11-29T15:00:32.925Z,42.77
2022-11-29T15:03:17.146Z,39.80
2022-11-29T15:05:46.351Z,36.63
2022-11-29T15:08:20.566Z,40.40
2022-11-29T15:10:52.297Z,37.47
2022-11-29T15:13:28.937Z,38.07
2022-11-29T15:16:16.658Z,40.80
2022-11-29T15:19:23.214Z,40.57
2022-11-29T15:21:56.613Z,44.20
2022-11-29T15:24:28.482Z,39.83
2022-11-29T15:27:00.047Z,46.33
2022-11-29T15:29:28.393Z,41.47
2022-11-29T15:31:57.554Z,38.70
2022-11-29T15:34:37.574Z,43.27
2022-11-29T15:37:04.739Z,44.37
2022-11-29T15:39:34.224Z,37.23
2022-11-29T15:42:11.807Z,49.43
2022-11-29T15:44:45.747Z,53.00
2022-11-29T15:47:22.901Z,45.27
2022-11-29T15:49:50.661Z,43.17
2022-11-29T15:52:25.904Z,41.23
2022-11-29T15:54:56.915Z,45.20
2022-11-29T15:57:43.249Z,41.33
2022-11-29T16:00:20.356Z,41.30
2022-11-29T16:02:55.744Z,43.37
2022-11-29T16:05:31.252Z,45.17
2022-11-29T16:08:01.563Z,38.47
2022-11-29T16:10:36.162Z,41.60
2022-11-29T16:13:26.214Z,42.83
2022-11-29T16:16:06.397Z,45.60
2022-11-29T16:18:34.049Z,45.00
2022-11-29T16:21:05.762Z,42.73
2022-11-29T16:23:41.383Z,43.77
2022-11-29T16:26:12.380Z,42.20
2022-11-29T16:28:44.861Z,38.03
2022-11-29T16:31:18.334Z,38.27
2022-11-29T16:33:47.663Z,41.50
2022-11-29T16:36:17.441Z,42.77
2022-11-29T16:38:46.340Z,36.00
2022-11-29T16:41:35.419Z,38.23
2022-11-29T16:44:03.503Z,43.23
2022-11-29T16:46:37.196Z,45.00
2022-11-29T16:49:30.562Z,44.27
2022-11-29T16:51:57.249Z,39.70
2022-11-29T16:54:31.974Z,41.57
2022-11-29T16:56:58.624Z,40.13
2022-11-29T16:59:28.070Z,40.43
2022-11-29T17:01:56.562Z,42.93
2022-11-29T17:04:24.984Z,45.00
2022-11-29T17:06:56.032Z,43.90
2022-11-29T17:09:25.933Z,39.03
2022-11-29T17:11:52.992Z,46.60
2022-11-29T17:14:19.470Z,38.43
2022-11-29T17:16:49.359Z,43.80
2022-11-29T17:19:16.188Z,47.53
2022-11-29T17:21:42.732Z,68.93
2022-11-29T17:24:14.377Z,57.63
2022-11-29T17:26:41.513Z,57.27
2022-11-29T17:29:10.004Z,63.53
2022-11-29T17:31:36.576Z,44.97
2022-11-29T17:34:03.415Z,47.10
2022-11-29T17:36:30.573Z,46.00
2022-11-29T17:38:59.103Z,43.83
2022-11-29T17:41:26.837Z,45.67
2022-11-29T17:43:54.539Z,42.67
2022-11-29T17:46:23.137Z,42.37
2022-11-29T17:48:50.654Z,43.03
2022-11-29T17:51:50.098Z,42.83
2022-11-29T17:54:05.986Z,44.07
2022-11-29T17:56:32.852Z,44.37
2022-11-29T17:59:01.417Z,42.73
2022-11-29T18:01:30.667Z,43.63
2022-11-29T18:04:00.474Z,40.13
2022-11-29T18:06:28.975Z,39.53
2022-11-29T18:08:57.679Z,43.73
2022-11-29T18:11:30.477Z,44.43
2022-11-29T18:13:58.021Z,46.70
2022-11-29T18:16:27.601Z,39.70
2022-11-29T18:19:08.238Z,41.53
2022-11-29T18:21:36.052Z,40.57
2022-11-29T18:24:03.856Z,44.37
2022-11-29T18:26:31.530Z,46.87
2022-11-29T18:28:58.418Z,45.13
2022-11-29T18:31:28.345Z,57.63
2022-11-29T18:34:00.131Z,69.20
2022-11-29T18:36:31.609Z,56.07
2022-11-29T18:39:03.781Z,53.37
2022-11-29T18:41:31.060Z,46.30
2022-11-29T18:43:59.863Z,52.87
2022-11-29T18:46:32.195Z,43.37
2022-11-29T18:49:02.561Z,40.17
2022-11-29T18:51:30.459Z,42.77
2022-11-29T18:53:58.125Z,43.60
2022-11-29T18:56:26.475Z,45.93
2022-11-29T18:58:58.171Z,47.23
2022-11-29T19:01:27.559Z,39.77
2022-11-29T19:03:55.297Z,41.50
2022-11-29T19:06:24.084Z,44.13
2022-11-29T19:08:51.881Z,41.33
2022-11-29T19:11:23.672Z,41.47
2022-11-29T19:13:56.501Z,38.93
2022-11-29T19:16:24.010Z,40.57
2022-11-29T19:18:52.295Z,47.23
2022-11-29T19:21:20.475Z,40.30
2022-11-29T19:23:53.347Z,49.47
2022-11-29T19:26:20.167Z,39.33
2022-11-29T19:28:47.453Z,38.97
2022-11-29T19:31:15.946Z,37.50
2022-11-29T19:33:44.830Z,39.67
2022-11-29T19:36:19.515Z,40.03
2022-11-29T19:38:51.693Z,38.17
2022-11-29T19:41:34.527Z,41.53
2022-11-29T19:44:04.457Z,38.60
2022-11-29T19:46:35.918Z,39.93
2022-11-29T19:49:04.607Z,41.43
2022-11-29T19:51:31.487Z,37.60
2022-11-29T19:54:00.924Z,40.67
2022-11-29T19:56:28.251Z,36.77
2022-11-29T19:58:55.273Z,41.90
2022-11-29T20:01:25.102Z,39.17
2022-11-29T20:03:52.305Z,39.90
2022-11-29T20:06:19.244Z,40.73
2022-11-29T20:08:45.852Z,39.60
2022-11-29T20:11:19.594Z,41.63
2022-11-29T20:13:48.247Z,40.53
2022-11-29T20:16:15.980Z,37.13
2022-11-29T20:18:50.492Z,38.40
2022-11-29T20:21:23.082Z,39.87
2022-11-29T20:23:49.758Z,41.53
2022-11-29T20:26:18.331Z,39.73
2022-11-29T20:28:46.416Z,40.47
2022-11-29T20:31:15.850Z,40.43
2022-11-29T20:33:43.878Z,39.80
2022-11-29T20:36:35.735Z,35.13
2022-11-29T20:39:39.711Z,38.03
2022-11-29T20:42:25.124Z,38.40
2022-11-29T20:44:57.686Z,41.40
2022-11-29T20:47:26.750Z,39.57
2022-11-29T20:49:54.034Z,37.17
2022-11-29T20:52:42.714Z,38.53
2022-11-29T20:55:09.256Z,41.33
2022-11-29T20:57:38.237Z,39.07
2022-11-29T21:00:07.299Z,39.80
2022-11-29T21:02:34.192Z,44.57
2022-11-29T21:05:00.842Z,39.43
2022-11-29T21:07:27.781Z,33.83
2022-11-29T21:09:58.062Z,37.83
2022-11-29T21:12:28.508Z,36.40
2022-11-29T21:14:55.240Z,37.17
2022-11-29T21:17:23.036Z,43.37
2022-11-29T21:19:49.676Z,37.27
2022-11-29T21:22:35.840Z,37.80
2022-11-29T21:25:30.030Z,33.27
2022-11-29T21:27:56.713Z,32.03
2022-11-29T21:30:27.210Z,40.17
2022-11-29T21:32:54.052Z,37.53
2022-11-29T21:35:20.681Z,34.60
2022-11-29T21:37:47.272Z,34.70
2022-11-29T21:40:14.476Z,37.40
2022-11-29T21:42:41.184Z,37.27
2022-11-29T21:45:14.842Z,31.03
2022-11-29T21:47:41.861Z,33.60
2022-11-29T21:50:08.615Z,37.43
2022-11-29T21:52:35.348Z,43.17
2022-11-29T21:55:02.099Z,31.47
2022-11-29T21:57:28.662Z,35.17
2022-11-29T21:59:55.189Z,36.30
2022-11-29T22:02:21.743Z,35.57
2022-11-29T22:04:48.869Z,41.67
2022-11-29T22:07:15.657Z,35.93
2022-11-29T22:09:42.346Z,33.13
2022-11-29T22:12:32.008Z,37.47
2022-11-29T22:14:55.615Z,36.27
2022-11-29T22:17:22.216Z,36.43
2022-11-29T22:19:48.900Z,39.27
2022-11-29T22:22:15.539Z,37.90
2022-11-29T22:24:41.976Z,38.47
2022-11-29T22:27:08.407Z,38.27
2022-11-29T22:29:35.782Z,36.10
2022-11-29T22:32:02.271Z,37.10
2022-11-29T22:34:28.846Z,37.67
2022-11-29T22:36:55.782Z,34.23
2022-11-29T22:39:22.696Z,33.73
2022-11-29T22:41:53.930Z,34.90
2022-11-29T22:44:21.356Z,39.17
2022-11-29T22:46:47.891Z,39.03
2022-11-29T22:49:14.520Z,34.77
2022-11-29T22:51:41.097Z,34.60
2022-11-29T22:54:09.329Z,32.17
2022-11-29T22:56:41.044Z,35.80
2022-11-29T22:59:08.593Z,36.63
2022-11-29T23:01:37.124Z,39.73
2022-11-29T23:04:05.975Z,33.90
2022-11-29T23:06:52.780Z,35.17
2022-11-29T23:09:22.474Z,38.30
2022-11-29T23:11:54.088Z,39.73
2022-11-29T23:14:22.331Z,36.23
2022-11-29T23:16:49.435Z,41.00
2022-11-29T23:19:16.284Z,36.17
2022-11-29T23:21:45.745Z,32.60
2022-11-29T23:24:12.755Z,35.27
2022-11-29T23:26:42.589Z,34.10
2022-11-29T23:29:11.920Z,35.93
2022-11-29T23:31:38.847Z,34.63
2022-11-29T23:34:05.545Z,34.20
2022-11-29T23:36:32.447Z,32.47
2022-11-29T23:38:59.146Z,37.57
2022-11-29T23:41:25.957Z,34.40
2022-11-29T23:43:52.379Z,33.47
2022-11-29T23:46:21.593Z,35.20
2022-11-29T23:48:48.452Z,34.27
2022-11-29T23:51:15.944Z,36.43
2022-11-29T23:53:42.896Z,34.70
2022-11-29T23:56:12.714Z,34.80
2022-11-29T23:58:39.307Z,35.47
